Terminal Aerodrome Forecast
Issued by NWS

Home | Current Version | Previous Version | Text Only | Print | Product List | Glossary On
Versions: 1 2 3 4 5 6 7 8 9 10 11 12 13 14 15 16 17 18 19 20 21
000
FTUS43 KDMX 310530
TAFMCW
TAF
KMCW 310530Z 3106/0106 16008KT P6SM SCT050 BKN120
     FM310800 16008KT P6SM VCTS SCT050CB BKN080
     FM311100 17009KT P6SM SCT050 BKN110
     FM311900 21010G15KT 5SM -TSRA OVC028CB
     FM010200 25006KT P6SM SCT035=

USA.gov is the U.S. government's official web portal to all federal, state and local government web resources and services.